Time;durP1;ratioP1;P1;durP2;ratioP2;P2;SDS_P1;SDS_P2;PMS_P1;PMS_P2;Temp;Humidity;BMP_temperature;BMP_pressure;BME280_temperature;BME280_humidity;BME280_pressure;Samples;Min_cycle;Max_cycle;Signal;HPM_P1;HPM_P2
2023/06/30 00:00:08;;;;;;;7.00;6.50;;;;;;;19.09;75.74;94953.22;5093010;28;20925;-79
2023/06/30 00:02:36;;;;;;;7.30;6.37;;;;;;;19.04;76.37;94957.41;5059658;28;20463;-79
2023/06/30 00:05:05;;;;;;;11.13;7.30;;;;;;;19.10;75.06;94962.03;5093009;28;20924;-79
2023/06/30 00:07:32;;;;;;;6.70;6.00;;;;;;;19.13;75.67;94962.50;5057453;28;20520;-79
2023/06/30 00:10:07;;;;;;;8.07;5.70;;;;;;;19.11;75.86;94963.69;5057457;28;20804;-78
2023/06/30 00:12:34;;;;;;;6.83;6.30;;;;;;;19.07;76.13;94965.84;5093130;28;20447;-79
2023/06/30 00:15:01;;;;;;;7.28;6.68;;;;;;;19.15;76.33;94965.78;5093117;28;20523;-79
2023/06/30 00:17:29;;;;;;;7.67;6.67;;;;;;;19.24;74.91;94963.88;5093037;28;20232;-79
2023/06/30 00:20:05;;;;;;;6.73;6.13;;;;;;;19.26;74.51;94966.34;5093377;28;20448;-79
2023/06/30 00:22:44;;;;;;;6.93;6.33;;;;;;;19.29;74.66;94955.34;5092662;28;20470;-79
2023/06/30 00:25:15;;;;;;;6.33;5.80;;;;;;;19.27;74.00;94962.69;5058864;28;20440;-79
2023/06/30 00:27:54;;;;;;;7.33;6.63;;;;;;;19.23;74.26;94959.56;5097341;28;20462;-79
2023/06/30 00:30:34;;;;;;;7.70;6.90;;;;;;;19.19;74.52;94960.94;5061441;28;21042;-79
2023/06/30 00:33:09;;;;;;;7.10;6.30;;;;;;;19.09;74.81;94963.88;5096740;28;20949;-78
2023/06/30 00:35:49;;;;;;;6.17;5.63;;;;;;;18.92;74.53;94957.03;5096974;28;20454;-79
2023/06/30 00:38:25;;;;;;;7.03;6.43;;;;;;;18.81;75.41;94958.28;5096682;28;20575;-79
2023/06/30 00:40:58;;;;;;;6.30;5.83;;;;;;;18.82;75.42;94957.28;5061212;28;20453;-79
2023/06/30 00:43:33;;;;;;;13.23;7.27;;;;;;;18.79;73.85;94959.44;5060959;28;20522;-79
2023/06/30 00:46:03;;;;;;;8.00;7.30;;;;;;;18.71;75.15;94967.50;5096659;28;20793;-79
2023/06/30 00:48:48;;;;;;;7.03;6.50;;;;;;;18.64;76.28;94966.56;5096634;28;20944;-79
2023/06/30 00:51:41;;;;;;;6.80;6.30;;;;;;;18.67;76.01;94959.03;5066142;28;20466;-79
2023/06/30 00:54:15;;;;;;;7.07;6.47;;;;;;;18.76;76.81;94957.16;5053607;28;20443;-79
2023/06/30 00:56:44;;;;;;;11.70;6.40;;;;;;;18.87;76.23;94962.06;5020215;28;20571;-79
2023/06/30 00:59:19;;;;;;;6.30;5.80;;;;;;;18.94;75.67;94952.34;5053908;28;20865;-79
2023/06/30 01:01:57;;;;;;;6.90;6.30;;;;;;;18.94;75.27;94957.66;5053917;28;20453;-79
2023/06/30 01:04:36;;;;;;;6.87;6.37;;;;;;;18.89;75.27;94952.06;5005601;28;20454;-79
2023/06/30 01:07:20;;;;;;;7.30;6.70;;;;;;;18.85;74.22;94953.44;5053741;28;20458;-79
2023/06/30 01:09:54;;;;;;;6.70;6.20;;;;;;;18.72;75.04;94953.19;5053499;28;20446;-79
2023/06/30 01:12:28;;;;;;;6.53;6.03;;;;;;;18.70;75.19;94960.53;5053657;28;20960;-79
2023/06/30 01:15:02;;;;;;;6.80;5.97;;;;;;;18.66;75.85;94953.91;5053351;28;20447;-79
2023/06/30 01:17:33;;;;;;;6.90;6.07;;;;;;;18.58;74.66;94946.81;5053572;28;21115;-79
2023/06/30 01:20:10;;;;;;;7.20;6.60;;;;;;;18.57;75.89;94958.44;5053661;28;20448;-79
2023/06/30 01:23:13;;;;;;;7.33;6.63;;;;;;;18.53;75.68;94957.16;5053440;28;20545;-79
2023/06/30 01:26:01;;;;;;;7.33;6.63;;;;;;;18.52;76.95;94952.84;5087644;28;20473;-79
2023/06/30 01:28:37;;;;;;;7.37;6.70;;;;;;;18.53;75.90;94950.00;5095685;28;20936;-79
2023/06/30 01:31:08;;;;;;;6.63;6.10;;;;;;;18.64;76.11;94948.78;5095784;28;21505;-79
2023/06/30 01:33:37;;;;;;;7.20;6.50;;;;;;;18.73;76.05;94949.53;5095514;28;20443;-79
2023/06/30 01:36:09;;;;;;;7.67;7.07;;;;;;;18.78;76.14;94941.84;5095381;28;20444;-79
2023/06/30 01:38:52;;;;;;;8.30;7.43;;;;;;;18.86;75.47;94939.13;5012003;28;20481;-79
2023/06/30 01:41:23;;;;;;;6.93;6.23;;;;;;;18.75;72.66;94939.53;5095524;28;20924;-78
2023/06/30 01:43:57;;;;;;;8.80;6.70;;;;;;;18.42;74.87;94942.41;5095655;28;20446;-79
2023/06/30 01:49:18;;;;;;;9.67;8.87;;;;;;;18.13;77.62;94943.09;5033190;28;21041;-79
2023/06/30 01:51:55;;;;;;;12.77;8.57;;;;;;;17.90;79.67;94937.72;5016995;28;20440;-79
2023/06/30 01:54:29;;;;;;;9.27;7.97;;;;;;;17.97;81.16;94929.09;5002026;28;21185;-79
2023/06/30 01:57:01;;;;;;;10.93;7.80;;;;;;;17.86;81.50;94936.44;5032563;28;20458;-79
2023/06/30 01:59:39;;;;;;;9.63;8.73;;;;;;;17.76;81.57;94927.03;5032875;28;20456;-79
2023/06/30 02:02:13;;;;;;;13.37;8.67;;;;;;;17.80;83.46;94929.16;5032487;28;20775;-79
2023/06/30 02:04:49;;;;;;;9.07;7.83;;;;;;;17.92;81.78;94935.72;5032766;28;20759;-79
2023/06/30 02:07:20;;;;;;;8.47;7.60;;;;;;;18.07;81.36;94937.66;4986677;28;20452;-79
2023/06/30 02:10:02;;;;;;;9.63;8.60;;;;;;;18.20;80.66;94937.91;5032661;28;20533;-79
2023/06/30 02:12:37;;;;;;;8.73;7.97;;;;;;;18.33;80.86;94937.34;5032846;28;20482;-79
2023/06/30 02:15:11;;;;;;;14.83;8.27;;;;;;;18.39;80.50;94942.78;4999648;28;20447;-78
2023/06/30 02:17:55;;;;;;;7.93;6.70;;;;;;;18.48;80.20;94941.69;4984738;28;20528;-79
2023/06/30 02:20:32;;;;;;;7.77;7.07;;;;;;;18.53;78.76;94944.69;5007900;28;20451;-79
2023/06/30 02:23:02;;;;;;;6.83;6.20;;;;;;;18.50;77.99;94942.38;5094800;28;20538;-79
2023/06/30 02:25:36;;;;;;;9.33;7.00;;;;;;;18.45;76.54;94931.44;5094621;28;20813;-79
2023/06/30 02:28:04;;;;;;;7.03;6.40;;;;;;;18.41;77.17;94937.28;5061362;28;20452;-79
2023/06/30 02:30:31;;;;;;;7.93;7.17;;;;;;;18.38;76.99;94935.81;5060033;28;20488;-79
2023/06/30 02:32:58;;;;;;;7.83;6.80;;;;;;;18.38;77.01;94940.28;5094626;28;20446;-79
2023/06/30 02:35:30;;;;;;;7.63;6.17;;;;;;;18.41;75.77;94943.41;5094308;28;20544;-79
2023/06/30 02:37:57;;;;;;;7.73;6.37;;;;;;;18.36;76.08;94943.13;5058718;28;20486;-79
2023/06/30 02:40:37;;;;;;;7.73;6.30;;;;;;;18.32;76.09;94954.28;5094670;28;21135;-79
2023/06/30 02:43:07;;;;;;;7.50;6.90;;;;;;;18.20;77.42;94945.88;5094632;28;20448;-78
2023/06/30 02:45:37;;;;;;;8.67;7.57;;;;;;;18.19;77.02;94942.38;5094407;28;20523;-79
2023/06/30 02:48:13;;;;;;;7.90;6.80;;;;;;;18.17;77.38;94932.94;5093420;28;20771;-79
2023/06/30 02:50:41;;;;;;;7.30;6.60;;;;;;;18.20;77.74;94943.22;5094078;28;20966;-80
2023/06/30 02:53:20;;;;;;;7.23;6.63;;;;;;;18.15;76.79;94935.78;5094574;28;20445;-79
2023/06/30 02:55:48;;;;;;;6.77;6.10;;;;;;;17.95;76.52;94940.72;5062525;28;20440;-79
2023/06/30 02:58:25;;;;;;;7.47;6.77;;;;;;;17.88;77.92;94922.97;5025083;28;20484;-79
2023/06/30 03:00:59;;;;;;;6.90;6.30;;;;;;;17.75;77.42;94928.88;5093885;28;20491;-79
2023/06/30 03:03:26;;;;;;;7.50;6.80;;;;;;;17.74;78.42;94929.88;5093635;28;20439;-78
2023/06/30 03:05:56;;;;;;;7.53;6.90;;;;;;;17.74;78.89;94927.22;5093602;28;20446;-79
2023/06/30 03:08:29;;;;;;;7.03;6.33;;;;;;;17.75;80.02;94928.03;5058064;28;20444;-80
2023/06/30 03:11:11;;;;;;;8.52;7.65;;;;;;;17.83;78.71;94918.19;5092277;28;20432;-80
2023/06/30 03:13:54;;;;;;;7.63;7.03;;;;;;;17.86;77.88;94917.84;5058116;28;20197;-79
2023/06/30 03:16:21;;;;;;;7.47;6.87;;;;;;;17.71;79.05;94922.25;5073409;28;20445;-78
2023/06/30 03:18:52;;;;;;;7.57;6.90;;;;;;;17.82;80.16;94924.50;5073305;28;20594;-79
2023/06/30 03:21:18;;;;;;;7.80;7.10;;;;;;;17.96;78.99;94922.97;5073360;28;20469;-78
2023/06/30 03:23:45;;;;;;;9.90;7.37;;;;;;;18.02;78.32;94918.78;5073091;28;20441;-79
2023/06/30 03:26:14;;;;;;;18.33;7.30;;;;;;;18.07;78.12;94921.72;5073022;28;20452;-78
2023/06/30 03:28:41;;;;;;;8.13;6.80;;;;;;;18.22;76.28;94920.81;5073148;28;20456;-78
2023/06/30 03:31:07;;;;;;;7.53;6.73;;;;;;;18.43;75.85;94921.97;5021809;28;20482;-78
2023/06/30 03:33:35;;;;;;;8.20;7.43;;;;;;;18.62;76.54;94918.88;5073028;28;20981;-78
2023/06/30 03:36:01;;;;;;;8.30;7.03;;;;;;;18.88;74.61;94931.81;5072938;28;20456;-79
2023/06/30 03:38:28;;;;;;;7.23;6.57;;;;;;;19.25;75.02;94930.94;5081211;28;20523;-79
2023/06/30 03:40:55;;;;;;;5.87;5.37;;;;;;;19.63;72.79;94920.22;5073418;28;20443;-78
2023/06/30 03:43:23;;;;;;;6.97;6.10;;;;;;;19.98;71.12;94923.97;5073095;28;20448;-78
2023/06/30 03:45:50;;;;;;;10.60;6.37;;;;;;;20.21;70.95;94927.28;5073290;28;20445;-78
2023/06/30 03:48:20;;;;;;;7.00;5.90;;;;;;;20.31;69.52;94930.50;5073001;28;20457;-78
2023/06/30 03:50:49;;;;;;;7.43;6.67;;;;;;;20.54;68.74;94929.53;5073164;28;20443;-79
2023/06/30 03:53:19;;;;;;;6.50;5.50;;;;;;;20.72;67.87;94937.91;5073141;28;20445;-78
2023/06/30 03:55:45;;;;;;;10.90;6.70;;;;;;;20.77;66.90;94937.31;5073521;28;20439;-79
2023/06/30 03:58:12;;;;;;;8.00;6.70;;;;;;;20.72;66.94;94935.22;5073386;28;20495;-77
2023/06/30 04:00:40;;;;;;;17.40;8.73;;;;;;;20.60;67.42;94932.25;5079632;28;20457;-78
2023/06/30 04:03:10;;;;;;;11.73;7.43;;;;;;;20.10;70.06;94930.44;5080686;28;20447;-78
2023/06/30 04:05:37;;;;;;;15.57;8.93;;;;;;;19.90;71.44;94934.72;5098882;28;20440;-78
2023/06/30 04:08:04;;;;;;;11.20;10.17;;;;;;;19.61;72.66;94933.72;5099822;28;20237;-79
2023/06/30 04:10:33;;;;;;;10.97;9.50;;;;;;;19.48;73.65;94944.16;5047399;28;20446;-78
2023/06/30 04:12:59;;;;;;;19.63;9.33;;;;;;;19.23;74.52;94946.25;5099679;28;20910;-79
2023/06/30 04:15:28;;;;;;;13.13;7.60;;;;;;;18.94;76.02;94949.69;5099826;28;20794;-79
2023/06/30 04:17:56;;;;;;;10.23;9.10;;;;;;;19.03;76.09;94951.25;5099970;28;20516;-78
2023/06/30 04:20:23;;;;;;;9.07;8.27;;;;;;;19.32;77.30;94947.00;5063902;28;21155;-78
2023/06/30 04:22:50;;;;;;;19.80;8.60;;;;;;;19.69;75.92;94946.13;5099336;28;20464;-78
2023/06/30 04:25:18;;;;;;;10.47;9.03;;;;;;;19.86;74.55;94944.91;5099747;28;20455;-78
2023/06/30 04:27:47;;;;;;;8.10;7.40;;;;;;;20.22;74.16;94944.94;5047616;28;20450;-78
2023/06/30 04:30:14;;;;;;;11.00;9.33;;;;;;;20.69;72.51;94943.63;5097752;28;20456;-79
2023/06/30 04:32:44;;;;;;;8.23;7.53;;;;;;;20.97;69.83;94938.31;5079562;28;20464;-79
2023/06/30 04:35:12;;;;;;;8.10;7.40;;;;;;;21.29;77.26;94940.44;5045013;28;20441;-80
2023/06/30 04:37:41;;;;;;;8.30;7.13;;;;;;;21.77;70.06;94942.41;5079609;28;20537;-81
2023/06/30 04:40:09;;;;;;;8.87;7.97;;;;;;;22.51;66.74;94945.16;5079243;28;20505;-81
2023/06/30 04:42:38;;;;;;;6.97;6.30;;;;;;;23.24;65.69;94938.09;5079510;28;20444;-82
2023/06/30 04:45:06;;;;;;;6.67;6.13;;;;;;;23.73;59.57;94931.44;5079482;28;20443;-76
2023/06/30 04:47:35;;;;;;;7.53;6.70;;;;;;;23.95;62.95;94922.09;5043545;28;20861;-77
2023/06/30 04:50:05;;;;;;;8.47;6.50;;;;;;;24.15;64.61;94931.91;5078592;28;20460;-78
2023/06/30 04:52:33;;;;;;;6.00;5.43;;;;;;;24.13;58.79;94929.44;5060380;28;20451;-78
2023/06/30 04:55:00;;;;;;;6.13;5.20;;;;;;;24.29;59.05;94931.69;5078925;28;20489;-78
2023/06/30 04:57:27;;;;;;;5.63;5.13;;;;;;;24.56;60.85;94935.03;5078706;28;20440;-78
2023/06/30 04:59:55;;;;;;;8.70;6.10;;;;;;;24.98;60.13;94940.78;5078535;28;20490;-79
2023/06/30 05:02:21;;;;;;;6.33;5.83;;;;;;;25.20;54.50;94944.78;5078943;28;20523;-77
2023/06/30 05:04:49;;;;;;;7.37;6.30;;;;;;;25.49;54.86;94939.78;5077766;28;20450;-78
2023/06/30 05:07:16;;;;;;;5.87;5.47;;;;;;;25.68;52.82;94936.06;5082250;28;20463;-77
2023/06/30 05:09:44;;;;;;;5.53;5.13;;;;;;;25.84;52.40;94932.00;5081519;28;20451;-78
2023/06/30 05:12:11;;;;;;;8.43;6.03;;;;;;;25.97;52.13;94931.03;5094898;28;20444;-77
2023/06/30 05:14:37;;;;;;;7.50;5.67;;;;;;;26.18;51.25;94934.06;5095215;28;21052;-78
2023/06/30 05:17:05;;;;;;;8.70;5.27;;;;;;;26.40;50.01;94936.34;5043006;28;20436;-77
2023/06/30 05:19:34;;;;;;;7.23;5.80;;;;;;;26.39;50.18;94930.13;5039744;28;20483;-78
2023/06/30 05:22:01;;;;;;;14.97;5.70;;;;;;;26.57;49.96;94929.25;5034390;28;20493;-78
2023/06/30 05:24:28;;;;;;;6.13;5.63;;;;;;;26.67;49.28;94931.41;5074112;28;20460;-77
2023/06/30 05:26:57;;;;;;;6.50;5.97;;;;;;;26.77;47.98;94929.81;5054859;28;20450;-77
2023/06/30 05:29:29;;;;;;;8.33;5.77;;;;;;;26.86;47.51;94935.69;5055238;28;20548;-77
2023/06/30 05:31:58;;;;;;;11.37;6.13;;;;;;;26.83;48.08;94945.03;5055285;28;20824;-77
2023/06/30 05:34:25;;;;;;;7.07;6.20;;;;;;;26.73;48.83;94946.66;5054769;28;20438;-81
2023/06/30 05:36:54;;;;;;;8.80;6.00;;;;;;;26.79;50.36;94943.84;5054712;28;20963;-78
2023/06/30 05:39:21;;;;;;;5.90;5.30;;;;;;;26.95;49.00;94945.09;5054921;28;20491;-77
2023/06/30 05:41:48;;;;;;;10.63;6.93;;;;;;;27.17;50.84;94943.50;5074160;28;20447;-78
2023/06/30 05:44:16;;;;;;;13.73;8.00;;;;;;;26.74;50.91;94946.41;5074905;28;20444;-77
2023/06/30 05:46:43;;;;;;;10.13;8.07;;;;;;;26.20;52.40;94941.91;5075299;28;20437;-77
2023/06/30 05:49:09;;;;;;;11.03;7.00;;;;;;;25.90;53.63;94937.28;5039958;28;20456;-78
2023/06/30 05:51:37;;;;;;;9.60;7.37;;;;;;;26.15;52.49;94941.78;5075297;28;20799;-77
2023/06/30 05:54:04;;;;;;;7.30;6.63;;;;;;;26.39;52.21;94938.22;5075089;28;20476;-78
2023/06/30 05:56:33;;;;;;;12.13;6.13;;;;;;;26.70;51.30;94947.13;5074950;28;20449;-78
2023/06/30 05:59:00;;;;;;;10.97;6.87;;;;;;;27.10;50.44;94945.50;5040385;28;20484;-78
2023/06/30 06:01:28;;;;;;;7.67;6.90;;;;;;;27.14;48.50;94938.59;5075547;28;20544;-78
2023/06/30 06:03:55;;;;;;;10.80;6.90;;;;;;;26.79;50.15;94937.66;5039601;28;20452;-77
2023/06/30 06:06:22;;;;;;;13.20;6.60;;;;;;;26.43;49.45;94943.94;5055950;28;20448;-77
2023/06/30 06:08:49;;;;;;;9.10;6.70;;;;;;;26.38;50.63;94947.31;5074592;28;20456;-76
2023/06/30 06:11:18;;;;;;;9.27;8.33;;;;;;;25.84;52.77;94950.81;5073544;28;20812;-76
2023/06/30 06:13:45;;;;;;;7.70;6.70;;;;;;;25.89;52.33;94951.78;5073728;28;20958;-76
2023/06/30 06:16:12;;;;;;;7.60;6.90;;;;;;;26.16;52.19;94944.25;5073955;28;20440;-77
2023/06/30 06:18:44;;;;;;;6.70;6.20;;;;;;;26.18;52.54;94952.09;5073691;28;20489;-77
2023/06/30 06:21:11;;;;;;;8.50;6.80;;;;;;;26.37;52.82;94951.06;5076670;28;20856;-77
2023/06/30 06:23:38;;;;;;;9.93;8.10;;;;;;;26.63;49.80;94957.16;5092976;28;20440;-77
2023/06/30 06:26:04;;;;;;;7.70;7.00;;;;;;;26.79;49.27;94951.13;5093754;28;20470;-78
2023/06/30 06:28:31;;;;;;;6.67;6.17;;;;;;;26.98;49.54;94949.19;5093893;28;20440;-77
2023/06/30 06:30:58;;;;;;;7.33;6.30;;;;;;;27.23;49.39;94943.66;5093446;28;20469;-78
2023/06/30 06:33:27;;;;;;;7.93;7.07;;;;;;;27.55;47.56;94941.47;5093292;28;20448;-78
2023/06/30 06:35:55;;;;;;;9.67;8.77;;;;;;;27.14;47.92;94943.97;5057897;28;20440;-77
2023/06/30 06:38:22;;;;;;;8.50;7.70;;;;;;;26.85;49.06;94951.00;5093564;28;20440;-77
2023/06/30 06:40:49;;;;;;;8.87;7.97;;;;;;;26.98;49.80;94944.63;5093707;28;20438;-77
2023/06/30 06:43:17;;;;;;;9.93;7.90;;;;;;;27.24;48.72;94946.13;5093499;28;20826;-77
2023/06/30 06:45:44;;;;;;;9.07;7.67;;;;;;;27.50;47.80;94946.75;5093488;28;20938;-77
2023/06/30 06:48:21;;;;;;;8.20;7.50;;;;;;;27.90;47.27;94939.59;5093319;28;20431;-79
2023/06/30 06:50:52;;;;;;;8.80;7.90;;;;;;;28.08;47.33;94944.03;5093427;28;20448;-77
2023/06/30 06:53:22;;;;;;;10.00;8.03;;;;;;;28.12;47.67;94941.69;5093114;28;20451;-78
2023/06/30 06:55:52;;;;;;;15.33;8.13;;;;;;;28.16;46.25;94942.84;5093300;28;20527;-77
2023/06/30 06:58:19;;;;;;;12.83;8.97;;;;;;;28.01;46.31;94940.63;5093099;28;20444;-77
2023/06/30 07:00:47;;;;;;;10.90;8.53;;;;;;;27.69;47.74;94937.50;5041392;28;20557;-78
2023/06/30 07:03:14;;;;;;;11.80;9.00;;;;;;;27.75;48.25;94933.84;5093236;28;20448;-78
2023/06/30 07:05:41;;;;;;;11.60;8.50;;;;;;;27.73;49.10;94933.28;5093004;28;20444;-78
2023/06/30 07:08:07;;;;;;;11.63;8.07;;;;;;;28.00;47.86;94933.59;5093062;28;20444;-78
2023/06/30 07:10:36;;;;;;;9.33;8.27;;;;;;;28.23;47.51;94927.34;5093001;28;20479;-78
2023/06/30 07:13:03;;;;;;;10.90;7.93;;;;;;;28.59;46.30;94928.91;5092752;28;20981;-78
2023/06/30 07:15:30;;;;;;;11.37;8.53;;;;;;;28.77;45.20;94927.88;5093432;28;20843;-78
2023/06/30 07:17:57;;;;;;;8.97;8.07;;;;;;;28.62;45.45;94925.72;5093265;28;20455;-78
2023/06/30 07:20:25;;;;;;;9.20;8.37;;;;;;;28.50;46.32;94920.38;5092533;28;20480;-78
2023/06/30 07:22:52;;;;;;;9.63;8.50;;;;;;;28.55;45.25;94927.72;5093079;28;20471;-78
2023/06/30 07:25:19;;;;;;;7.80;7.03;;;;;;;28.64;46.73;94927.13;5092532;28;20961;-78
2023/06/30 07:27:52;;;;;;;9.30;8.40;;;;;;;28.82;46.34;94922.56;5040804;28;20809;-78
2023/06/30 07:30:20;;;;;;;9.07;7.60;;;;;;;28.44;45.68;94912.41;5092695;28;20440;-78
2023/06/30 07:32:48;;;;;;;7.97;7.00;;;;;;;28.23;47.00;94919.25;5092750;28;20448;-78
2023/06/30 07:35:14;;;;;;;11.90;9.10;;;;;;;27.91;46.36;94919.66;5092253;28;20804;-77
2023/06/30 07:37:41;;;;;;;8.70;7.80;;;;;;;27.86;46.20;94924.13;5092712;28;20455;-78
2023/06/30 07:40:09;;;;;;;8.13;7.37;;;;;;;28.00;46.39;94910.13;5092307;28;20491;-78
2023/06/30 07:42:38;;;;;;;8.97;8.07;;;;;;;27.96;46.86;94917.06;5092465;28;20945;-78
2023/06/30 07:45:08;;;;;;;13.20;6.90;;;;;;;27.79;48.30;94918.06;5092768;28;20435;-78
2023/06/30 07:47:35;;;;;;;10.60;8.67;;;;;;;27.23;48.35;94914.03;5092928;28;20479;-77
2023/06/30 07:50:02;;;;;;;9.53;7.67;;;;;;;26.70;49.28;94910.25;5092566;28;20451;-77
2023/06/30 07:52:29;;;;;;;10.07;7.50;;;;;;;26.82;49.50;94913.78;5092428;28;20476;-78
2023/06/30 07:54:57;;;;;;;8.50;7.50;;;;;;;26.89;48.85;94908.31;5040571;28;20451;-78
2023/06/30 07:57:27;;;;;;;8.80;7.60;;;;;;;26.89;50.39;94908.31;5092799;28;20443;-78
2023/06/30 07:59:54;;;;;;;6.77;5.97;;;;;;;27.24;49.64;94903.00;5039900;28;21112;-78
2023/06/30 08:02:22;;;;;;;9.10;6.43;;;;;;;27.52;48.51;94902.31;5092688;28;20885;-78
2023/06/30 08:04:50;;;;;;;6.77;6.07;;;;;;;27.36;46.96;94908.41;5092185;28;20971;-78
2023/06/30 08:07:16;;;;;;;6.93;6.30;;;;;;;27.50;48.44;94896.34;5092246;28;20531;-78
2023/06/30 08:09:43;;;;;;;3.53;3.30;;;;;;;27.28;42.05;94906.88;5040199;28;20463;-78
2023/06/30 08:12:10;;;;;;;11.33;5.50;;;;;;;27.25;44.45;94901.97;5056523;28;20440;-78
2023/06/30 08:14:37;;;;;;;4.20;3.80;;;;;;;27.41;45.26;94895.03;5092238;28;20448;-78
2023/06/30 08:17:04;;;;;;;7.00;6.00;;;;;;;27.33;45.18;94901.59;5091950;28;20448;-78
2023/06/30 08:19:32;;;;;;;10.90;6.63;;;;;;;27.42;47.90;94896.69;5092088;28;20989;-78
2023/06/30 08:22:01;;;;;;;8.03;5.93;;;;;;;27.45;45.70;94896.19;5091976;28;20474;-78
2023/06/30 08:24:28;;;;;;;5.97;5.00;;;;;;;27.61;45.13;94890.13;5092463;28;20566;-78
2023/06/30 08:26:54;;;;;;;7.53;5.30;;;;;;;27.71;44.46;94879.56;5040408;28;20448;-78
2023/06/30 08:29:21;;;;;;;7.90;5.07;;;;;;;27.92;44.65;94882.72;5039977;28;20451;-78
2023/06/30 08:31:48;;;;;;;14.00;5.10;;;;;;;27.85;43.72;94882.84;5056469;28;20452;-77
2023/06/30 08:34:15;;;;;;;5.27;4.00;;;;;;;27.48;42.65;94868.81;5092072;28;20451;-78
2023/06/30 08:36:43;;;;;;;3.53;3.20;;;;;;;27.73;41.26;94866.69;5092095;28;20792;-78
2023/06/30 08:39:11;;;;;;;4.10;3.57;;;;;;;27.75;41.95;94869.94;5091955;28;21010;-79
2023/06/30 08:41:38;;;;;;;4.63;3.40;;;;;;;27.60;42.16;94864.22;5040995;28;20448;-78
2023/06/30 08:44:06;;;;;;;3.77;3.13;;;;;;;27.46;40.99;94860.09;5092009;28;20450;-79
2023/06/30 08:46:34;;;;;;;4.20;2.30;;;;;;;27.45;39.70;94861.97;5094393;28;20928;-79
2023/06/30 08:49:01;;;;;;;3.63;3.33;;;;;;;27.61;41.44;94852.38;5095603;28;20446;-78
2023/06/30 08:51:28;;;;;;;6.23;3.83;;;;;;;27.37;43.21;94862.34;5096248;28;20440;-77
2023/06/30 08:53:57;;;;;;;6.10;4.30;;;;;;;27.54;44.47;94845.47;5043939;28;20451;-77
2023/06/30 08:56:26;;;;;;;4.27;3.97;;;;;;;27.49;44.07;94842.66;5095610;28;20444;-77
2023/06/30 08:58:52;;;;;;;6.67;5.13;;;;;;;27.48;45.23;94847.25;5095553;28;20435;-77
2023/06/30 09:01:20;;;;;;;5.87;5.20;;;;;;;27.57;44.70;94845.81;5043178;28;20447;-78
2023/06/30 09:03:47;;;;;;;7.20;5.40;;;;;;;27.70;43.85;94829.41;5095458;28;20443;-78
2023/06/30 09:06:15;;;;;;;4.97;4.57;;;;;;;27.79;45.06;94826.34;5095643;28;20942;-78
2023/06/30 09:08:48;;;;;;;4.60;4.20;;;;;;;27.66;44.83;94840.91;5095473;28;20443;-77
2023/06/30 09:11:17;;;;;;;4.80;4.30;;;;;;;27.74;43.05;94841.34;5095581;28;20454;-77
2023/06/30 09:13:48;;;;;;;4.40;3.63;;;;;;;27.71;42.82;94838.31;5095329;28;20442;-78
2023/06/30 09:16:17;;;;;;;5.83;4.13;;;;;;;27.72;44.55;94832.69;5043041;28;20428;-77
2023/06/30 09:18:46;;;;;;;4.87;4.57;;;;;;;27.77;42.85;94832.00;5095711;28;20440;-77
2023/06/30 09:21:14;;;;;;;5.10;4.53;;;;;;;27.86;42.85;94841.34;5095982;28;20491;-77
2023/06/30 09:23:42;;;;;;;5.00;4.60;;;;;;;27.69;42.32;94838.53;5043799;28;20443;-77
2023/06/30 09:26:14;;;;;;;5.97;5.47;;;;;;;27.55;44.41;94837.16;5095963;28;20439;-76
2023/06/30 09:28:43;;;;;;;5.82;5.32;;;;;;;27.63;43.84;94836.81;5043579;28;20432;-78
2023/06/30 09:31:13;;;;;;;5.30;4.90;;;;;;;27.63;43.85;94827.91;5096038;28;20237;-77
2023/06/30 09:33:42;;;;;;;5.17;4.60;;;;;;;27.48;43.42;94831.06;5095773;28;20454;-78
2023/06/30 09:36:09;;;;;;;5.10;4.20;;;;;;;27.53;43.24;94823.09;5095587;28;20945;-77
2023/06/30 09:38:36;;;;;;;8.37;4.57;;;;;;;27.60;44.25;94826.47;5095928;28;20440;-77
2023/06/30 09:41:05;;;;;;;5.60;5.07;;;;;;;27.55;42.78;94823.66;5095738;28;20479;-77
2023/06/30 09:43:32;;;;;;;5.73;5.10;;;;;;;27.52;43.75;94824.16;5095597;28;20514;-77
2023/06/30 09:46:01;;;;;;;19.47;6.07;;;;;;;27.52;44.84;94815.25;5095690;28;20926;-78
2023/06/30 09:48:30;;;;;;;5.60;4.20;;;;;;;27.35;44.77;94817.81;5095393;28;20456;-77
2023/06/30 09:50:57;;;;;;;6.57;4.47;;;;;;;27.38;45.02;94820.03;5095383;28;20447;-77
2023/06/30 09:53:24;;;;;;;5.00;4.60;;;;;;;26.18;47.17;94826.47;5095033;28;20448;-77
2023/06/30 09:55:52;;;;;;;5.83;5.33;;;;;;;26.17;47.95;94819.47;5095479;28;20583;-77
2023/06/30 09:58:21;;;;;;;6.00;5.37;;;;;;;26.05;47.32;94815.91;5094874;28;20467;-77
2023/06/30 10:00:48;;;;;;;5.93;4.83;;;;;;;26.18;47.91;94814.91;5095360;28;20523;-77
2023/06/30 10:03:16;;;;;;;8.73;4.87;;;;;;;26.36;49.20;94812.19;5095341;28;20451;-77
2023/06/30 10:05:45;;;;;;;5.73;5.20;;;;;;;26.45;47.78;94816.19;5094985;28;20923;-77
2023/06/30 10:08:12;;;;;;;5.73;5.33;;;;;;;26.62;48.09;94812.84;5094943;28;20450;-78
2023/06/30 10:10:41;;;;;;;6.53;5.33;;;;;;;26.59;46.56;94803.34;5043185;28;20444;-78
2023/06/30 10:13:08;;;;;;;6.50;5.53;;;;;;;26.54;46.02;94804.03;5094694;28;20976;-77
2023/06/30 10:15:36;;;;;;;6.27;5.63;;;;;;;26.54;47.22;94798.66;5094745;28;20927;-77
2023/06/30 10:18:05;;;;;;;6.70;6.10;;;;;;;26.58;46.49;94792.78;5042308;28;20439;-77
2023/06/30 10:20:35;;;;;;;6.40;5.80;;;;;;;26.47;47.13;94787.16;5094385;28;20483;-77
2023/06/30 10:23:04;;;;;;;6.17;5.57;;;;;;;26.57;46.19;94781.22;5095256;28;20961;-78
2023/06/30 10:25:32;;;;;;;6.17;5.53;;;;;;;26.57;46.44;94786.59;5094610;28;21001;-78
2023/06/30 10:27:59;;;;;;;7.17;6.47;;;;;;;26.79;47.77;94781.47;5094600;28;20443;-77
2023/06/30 10:30:26;;;;;;;6.80;5.20;;;;;;;26.97;46.62;94780.56;5042102;28;20785;-77
2023/06/30 10:32:53;;;;;;;6.30;5.77;;;;;;;27.14;47.42;94779.63;5094547;28;20448;-78
2023/06/30 10:35:22;;;;;;;6.50;5.90;;;;;;;27.14;45.44;94768.03;5094418;28;20869;-78
2023/06/30 10:37:50;;;;;;;5.87;5.30;;;;;;;27.01;47.43;94766.41;5094416;28;20448;-78
2023/06/30 10:40:28;;;;;;;7.90;6.07;;;;;;;26.84;47.08;94773.50;5094392;28;21001;-77
2023/06/30 10:42:56;;;;;;;6.27;5.67;;;;;;;26.76;45.04;94768.50;5094761;28;20448;-78
2023/06/30 10:45:28;;;;;;;6.70;5.63;;;;;;;26.64;47.26;94760.41;5094290;28;20444;-78
2023/06/30 10:47:57;;;;;;;6.67;6.07;;;;;;;26.72;47.14;94751.97;5094344;28;20509;-78
2023/06/30 10:50:25;;;;;;;6.17;5.57;;;;;;;26.84;48.60;94750.09;5094391;28;20455;-77
2023/06/30 10:52:54;;;;;;;6.90;6.20;;;;;;;26.76;47.15;94746.94;5094381;28;20459;-77
2023/06/30 10:55:22;;;;;;;8.40;5.97;;;;;;;26.80;48.19;94737.34;5094064;28;20444;-77
2023/06/30 10:57:51;;;;;;;7.50;6.10;;;;;;;26.70;48.12;94742.50;5058383;28;20532;-78
2023/06/30 11:00:20;;;;;;;8.93;6.40;;;;;;;26.71;49.47;94744.97;5093719;28;20887;-78
2023/06/30 11:02:50;;;;;;;6.83;6.20;;;;;;;26.52;48.76;94733.47;5094135;28;20447;-77
2023/06/30 11:05:24;;;;;;;7.20;6.50;;;;;;;26.76;49.75;94736.19;5094077;28;20444;-78
2023/06/30 11:07:54;;;;;;;6.20;5.60;;;;;;;26.61;49.49;94733.13;5093596;28;20848;-77
2023/06/30 11:10:28;;;;;;;10.93;6.40;;;;;;;26.68;47.99;94731.97;5093663;28;20452;-78
2023/06/30 11:12:59;;;;;;;9.03;6.37;;;;;;;26.68;48.69;94734.66;5093942;28;20450;-78
2023/06/30 11:15:40;;;;;;;8.50;6.20;;;;;;;26.83;47.99;94728.78;5093907;28;20451;-78
2023/06/30 11:18:11;;;;;;;7.67;6.97;;;;;;;26.68;47.63;94731.97;5093618;28;20451;-78
2023/06/30 11:20:38;;;;;;;7.90;6.17;;;;;;;26.57;47.36;94731.94;5093421;28;20499;-78
2023/06/30 11:23:18;;;;;;;7.47;6.63;;;;;;;26.47;48.78;94711.81;5093190;28;20479;-78
2023/06/30 11:25:45;;;;;;;7.70;7.00;;;;;;;26.63;48.75;94725.66;5093510;28;20447;-78
2023/06/30 11:28:12;;;;;;;12.87;6.40;;;;;;;26.49;49.59;94715.09;5093786;28;20467;-78
2023/06/30 11:30:39;;;;;;;6.13;5.53;;;;;;;26.72;49.28;94703.53;5093335;28;20932;-78
2023/06/30 11:33:07;;;;;;;9.77;6.73;;;;;;;26.83;50.29;94707.25;5057702;28;20517;-78
2023/06/30 11:35:35;;;;;;;6.47;5.90;;;;;;;26.69;48.01;94697.78;5093655;28;20435;-77
2023/06/30 11:38:03;;;;;;;6.70;6.00;;;;;;;26.84;49.25;94700.81;5093177;28;20444;-78
2023/06/30 11:40:31;;;;;;;6.43;5.90;;;;;;;26.74;48.51;94695.22;5093314;28;20487;-78
2023/06/30 11:42:58;;;;;;;9.90;6.90;;;;;;;26.69;48.17;94689.72;5093223;28;21018;-77
2023/06/30 11:45:28;;;;;;;7.13;6.43;;;;;;;26.54;48.27;94690.97;5093144;28;20448;-78